Dobrush, Belarus
Current Conditions -  °F | °C
As of 4:30 PM on Thursday 30 Oct 2014 (Local Time) from UMGG Reporting Station
Clear Clear  
Wind Chill: 43°   Ceiling: Unl
Heat Index: 46°   Visibility: 4mi
Dew Point: 23°   Wind: 7mph
Humidity: 40%   Direction: 180°S
Pressure: 30.21"   Gusts: NA
Location:  52.42°N, 31.32°E
Report Text: UMGG 301430Z 18003MPS 7000 NSC 08/M05 Q1023 R10/CLRD//NOSIG
Loading
Personal Weather Stations






























Interactive Weather Map
Tropical Storm Tracking
New forecast layout! Learn more

10-Day Weather Forecast

Advertisements
Track Severe Weather on mobile